Time;durP1;ratioP1;P1;durP2;ratioP2;P2;SDS_P1;SDS_P2;PMS_P1;PMS_P2;Temp;Humidity;BMP_temperature;BMP_pressure;BME280_temperature;BME280_humidity;BME280_pressure;Samples;Min_cycle;Max_cycle;Signal;HPM_P1;HPM_P2
2021/05/18 00:00:54;;;;;;;2.23;2.00;;;15.60;48.20;;;;;;5114579;28;20974;-84
2021/05/18 00:03:22;;;;;;;2.20;1.90;;;15.20;48.10;;;;;;5114837;28;20968;-84
2021/05/18 00:05:52;;;;;;;4.10;2.40;;;15.00;48.70;;;;;;5115027;28;20457;-83
2021/05/18 00:08:21;;;;;;;3.80;2.20;;;15.10;48.50;;;;;;5115498;28;20492;-83
2021/05/18 00:13:37;;;;;;;3.47;2.00;;;14.60;50.30;;;;;;5114532;28;20548;-83
2021/05/18 00:16:05;;;;;;;4.20;2.00;;;14.60;50.00;;;;;;5114393;28;20518;-83
2021/05/18 00:18:33;;;;;;;2.37;2.10;;;14.50;50.40;;;;;;5114599;28;20540;-83
2021/05/18 00:21:00;;;;;;;4.00;1.93;;;14.30;50.70;;;;;;5113952;28;20446;-83
2021/05/18 00:23:27;;;;;;;2.43;1.97;;;14.00;51.90;;;;;;5114850;28;20499;-83
2021/05/18 00:25:53;;;;;;;2.47;1.97;;;14.30;51.60;;;;;;5114584;28;20545;-83
2021/05/18 00:28:20;;;;;;;2.03;1.93;;;14.60;50.80;;;;;;5114305;28;20472;-83
2021/05/18 00:30:47;;;;;;;4.13;2.03;;;14.70;50.10;;;;;;5115562;28;20449;-83
2021/05/18 00:33:15;;;;;;;1.97;1.90;;;14.60;50.30;;;;;;5120156;28;20496;-83
2021/05/18 00:35:44;;;;;;;3.30;2.37;;;14.30;50.80;;;;;;5115474;28;20556;-83
2021/05/18 00:38:10;;;;;;;3.20;2.37;;;14.10;51.90;;;;;;5113935;28;20844;-83
2021/05/18 00:40:37;;;;;;;2.23;2.10;;;14.40;51.20;;;;;;5114769;28;20537;-83
2021/05/18 00:43:04;;;;;;;3.70;2.13;;;14.50;50.30;;;;;;5114461;28;20844;-83
2021/05/18 00:45:33;;;;;;;3.50;2.00;;;14.50;50.50;;;;;;5114836;28;20465;-83
2021/05/18 00:48:00;;;;;;;2.00;1.90;;;14.40;50.80;;;;;;5114681;28;20513;-83
2021/05/18 00:50:27;;;;;;;1.80;1.80;;;14.40;50.60;;;;;;5114804;28;20643;-83
2021/05/18 00:52:55;;;;;;;2.07;1.90;;;14.60;50.00;;;;;;5114684;28;20517;-83
2021/05/18 00:55:30;;;;;;;3.10;2.00;;;14.50;50.30;;;;;;5114473;28;20538;-83
2021/05/18 01:00:42;;;;;;;2.53;2.33;;;14.50;50.60;;;;;;5114805;28;20397;-83
2021/05/18 01:03:09;;;;;;;3.73;2.10;;;14.60;49.80;;;;;;5116468;28;20495;-83
2021/05/18 01:08:20;;;;;;;3.13;2.37;;;14.40;49.70;;;;;;5118107;28;20401;-83
2021/05/18 01:10:47;;;;;;;4.10;2.90;;;14.50;50.00;;;;;;5117945;28;21014;-83
2021/05/18 01:13:14;;;;;;;2.60;2.10;;;14.60;49.40;;;;;;5118340;28;20561;-83
2021/05/18 01:15:41;;;;;;;3.50;2.43;;;14.80;49.60;;;;;;5117966;28;20471;-83
2021/05/18 01:18:08;;;;;;;4.10;2.40;;;15.00;49.10;;;;;;5118681;28;20469;-83
2021/05/18 01:20:38;;;;;;;2.67;2.20;;;15.00;48.80;;;;;;5117855;28;20950;-83
2021/05/18 01:23:04;;;;;;;2.30;2.17;;;15.30;48.60;;;;;;5117828;28;20465;-83
2021/05/18 01:25:30;;;;;;;3.70;2.00;;;15.10;49.20;;;;;;5118061;28;20498;-83
2021/05/18 01:27:57;;;;;;;3.23;2.07;;;15.00;49.20;;;;;;5118580;28;20915;-83
2021/05/18 01:30:23;;;;;;;2.47;1.90;;;14.40;49.90;;;;;;5118195;28;20485;-83
2021/05/18 01:32:50;;;;;;;3.17;2.20;;;14.30;50.50;;;;;;5119314;28;20478;-83
2021/05/18 01:35:16;;;;;;;3.20;2.10;;;14.10;50.70;;;;;;5125241;28;20477;-83
2021/05/18 01:37:44;;;;;;;3.07;2.00;;;14.20;50.40;;;;;;5118307;28;20954;-84
2021/05/18 01:42:45;;;;;;;2.20;2.00;;;14.20;51.40;;;;;;5119055;28;20444;-83
2021/05/18 01:43:05;;;;;;;2.17;2.07;;;14.40;50.60;;;;;;5117470;28;20423;-83
2021/05/18 01:45:32;;;;;;;2.10;1.87;;;14.60;50.50;;;;;;5117752;27;21001;-83
2021/05/18 01:48:01;;;;;;;1.90;1.90;;;14.80;49.70;;;;;;5118695;28;20446;-83
2021/05/18 01:50:29;;;;;;;2.50;2.00;;;14.60;50.10;;;;;;5117944;28;20445;-83
2021/05/18 01:52:57;;;;;;;2.40;2.20;;;14.90;49.50;;;;;;5117723;28;20570;-83
2021/05/18 01:55:28;;;;;;;2.73;2.17;;;15.40;48.60;;;;;;5117950;28;20487;-83
2021/05/18 01:57:54;;;;;;;6.27;2.90;;;15.60;47.70;;;;;;5117641;28;20556;-83
2021/05/18 02:00:25;;;;;;;5.40;3.20;;;15.60;47.90;;;;;;5118261;28;20463;-83
2021/05/18 02:02:52;;;;;;;7.80;3.67;;;15.50;48.50;;;;;;5118316;28;20418;-84
2021/05/18 02:05:22;;;;;;;10.83;3.90;;;15.70;48.10;;;;;;5118623;28;20502;-84
2021/05/18 02:07:50;;;;;;;4.03;2.20;;;15.80;47.80;;;;;;5137490;28;20473;-84
2021/05/18 02:10:19;;;;;;;3.70;2.30;;;15.80;47.80;;;;;;5137700;28;20437;-84
2021/05/18 02:12:46;;;;;;;2.97;2.20;;;15.90;47.50;;;;;;5138112;28;20478;-84
2021/05/18 02:15:24;;;;;;;9.40;2.43;;;15.90;47.40;;;;;;5137676;28;20457;-84
2021/05/18 02:18:29;;;;;;;3.23;2.30;;;15.90;47.80;;;;;;5138575;28;20487;-84
2021/05/18 02:21:11;;;;;;;3.50;2.30;;;15.70;47.90;;;;;;5137231;28;20434;-84
2021/05/18 02:26:27;;;;;;;2.50;1.97;;;15.80;48.60;;;;;;5119665;27;20413;-83
2021/05/18 02:28:54;;;;;;;3.73;2.30;;;15.90;47.80;;;;;;5137410;28;20431;-83
2021/05/18 02:31:21;;;;;;;3.10;2.10;;;15.60;49.10;;;;;;5136785;28;20439;-83
2021/05/18 02:33:49;;;;;;;2.63;1.97;;;15.40;49.10;;;;;;5134796;28;20564;-83
2021/05/18 02:36:17;;;;;;;7.17;2.30;;;14.80;50.50;;;;;;5133064;28;20450;-83
2021/05/18 02:38:43;;;;;;;1.90;1.90;;;15.20;49.80;;;;;;5133102;28;20442;-83
2021/05/18 02:41:10;;;;;;;2.60;2.23;;;14.90;50.10;;;;;;5131818;28;20910;-83
2021/05/18 02:43:43;;;;;;;3.50;2.07;;;14.80;50.80;;;;;;5137585;27;20442;-83
2021/05/18 02:46:18;;;;;;;3.33;2.03;;;14.70;50.50;;;;;;5136686;28;20458;-83
2021/05/18 02:51:35;;;;;;;3.10;2.00;;;14.00;53.20;;;;;;5125787;28;20452;-83
2021/05/18 02:54:01;;;;;;;2.70;2.50;;;13.60;54.00;;;;;;5136709;28;20485;-83
2021/05/18 02:56:30;;;;;;;6.63;2.23;;;13.60;54.10;;;;;;5136370;28;20430;-83
2021/05/18 02:59:07;;;;;;;2.40;2.10;;;13.70;54.10;;;;;;5136161;28;20441;-83
2021/05/18 03:01:35;;;;;;;5.27;1.90;;;13.50;54.40;;;;;;5136782;28;20431;-83
2021/05/18 03:04:01;;;;;;;2.73;2.00;;;13.60;54.60;;;;;;5135835;28;20465;-83
2021/05/18 03:06:28;;;;;;;2.53;1.90;;;13.40;54.70;;;;;;5136597;28;20497;-83
2021/05/18 03:08:54;;;;;;;6.23;2.50;;;13.50;54.90;;;;;;5135870;28;20458;-83
2021/05/18 03:11:21;;;;;;;3.23;2.00;;;13.50;55.00;;;;;;5135961;28;20467;-83
2021/05/18 03:13:47;;;;;;;1.90;1.90;;;13.40;55.10;;;;;;5132432;28;20488;-83
2021/05/18 03:16:15;;;;;;;4.30;2.10;;;13.60;54.60;;;;;;5115881;28;20991;-83
2021/05/18 03:18:41;;;;;;;6.03;2.57;;;14.00;53.20;;;;;;5115318;28;20436;-83
2021/05/18 03:21:08;;;;;;;2.53;2.10;;;14.10;53.30;;;;;;5115030;28;20438;-83
2021/05/18 03:23:34;;;;;;;2.83;2.00;;;14.10;53.30;;;;;;5115696;28;20924;-83
2021/05/18 03:26:01;;;;;;;2.30;2.00;;;14.40;53.20;;;;;;5115240;28;20550;-83
2021/05/18 03:28:27;;;;;;;2.47;1.80;;;14.60;52.30;;;;;;5115305;28;20441;-84
2021/05/18 03:30:55;;;;;;;1.90;1.80;;;14.40;52.60;;;;;;5122315;28;20438;-83
2021/05/18 03:36:21;;;;;;;4.03;2.10;;;14.60;53.70;;;;;;5072691;28;20432;-84
2021/05/18 03:38:50;;;;;;;15.50;2.30;;;14.40;53.30;;;;;;5072462;28;20455;-84
2021/05/18 03:41:20;;;;;;;2.17;2.03;;;14.40;53.10;;;;;;5092091;28;20442;-84
2021/05/18 03:43:53;;;;;;;6.40;2.17;;;14.60;52.00;;;;;;5115456;28;20453;-84
2021/05/18 03:54:47;;;;;;;3.73;1.90;;;15.40;49.80;;;;;;5114867;28;20806;-84
2021/05/18 04:02:48;;;;;;;3.03;1.97;;;15.30;49.90;;;;;;5093454;28;20513;-84
2021/05/18 04:10:10;;;;;;;8.73;2.27;;;15.30;50.30;;;;;;5114858;28;20869;-84
2021/05/18 04:11:05;;;;;;;5.00;2.30;;;14.90;50.90;;;;;;5114873;28;20892;-84
2021/05/18 04:19:08;;;;;;;2.10;1.90;;;14.70;51.70;;;;;;5114625;28;20397;-84
2021/05/18 04:21:47;;;;;;;4.63;2.20;;;14.90;51.40;;;;;;5116162;28;20506;-84
2021/05/18 04:24:35;;;;;;;2.60;2.50;;;15.10;51.20;;;;;;5116585;28;20457;-83
2021/05/18 04:49:39;;;;;;;5.03;2.30;;;14.80;52.10;;;;;;5127305;28;20423;-83
2021/05/18 04:52:07;;;;;;;7.00;2.60;;;15.20;51.40;;;;;;5117800;28;20442;-83
2021/05/18 05:00:12;;;;;;;8.13;3.50;;;15.90;49.60;;;;;;5118350;28;20475;-83
2021/05/18 05:02:54;;;;;;;3.33;2.40;;;15.80;49.60;;;;;;5117343;28;20430;-83
2021/05/18 05:08:08;;;;;;;4.00;2.40;;;16.00;49.60;;;;;;5118469;28;20873;-83
2021/05/18 05:16:10;;;;;;;2.73;2.50;;;16.30;49.00;;;;;;5079167;28;20456;-83
2021/05/18 05:18:36;;;;;;;3.80;2.33;;;16.60;48.60;;;;;;5117974;28;20507;-83
2021/05/18 05:21:03;;;;;;;4.53;2.57;;;16.30;48.70;;;;;;5117914;28;20959;-83
2021/05/18 05:23:29;;;;;;;4.90;2.50;;;16.30;48.40;;;;;;5117934;28;20911;-84
2021/05/18 05:25:56;;;;;;;4.43;2.10;;;16.30;48.50;;;;;;5117589;27;20829;-84
2021/05/18 05:28:23;;;;;;;4.40;2.60;;;16.40;48.40;;;;;;5126989;28;20445;-84
2021/05/18 05:30:50;;;;;;;4.47;2.50;;;16.50;48.50;;;;;;5133500;28;20440;-84
2021/05/18 05:33:16;;;;;;;3.10;2.67;;;16.70;47.60;;;;;;5116542;28;20483;-83
2021/05/18 05:35:43;;;;;;;4.87;2.67;;;16.30;47.70;;;;;;5117563;28;20578;-83
2021/05/18 05:38:09;;;;;;;10.57;3.30;;;16.30;48.30;;;;;;5117674;28;20473;-83
2021/05/18 05:40:35;;;;;;;12.60;7.20;;;16.10;48.80;;;;;;5117615;28;21028;-83
2021/05/18 05:43:03;;;;;;;8.47;2.27;;;16.00;49.40;;;;;;5116851;28;20795;-84
2021/05/18 05:45:29;;;;;;;3.00;2.30;;;16.10;49.40;;;;;;5117034;28;20636;-83
2021/05/18 05:47:55;;;;;;;7.83;4.00;;;16.30;48.80;;;;;;5116833;28;20504;-83
2021/05/18 05:50:22;;;;;;;3.10;2.30;;;16.00;48.60;;;;;;5116655;28;20462;-83
2021/05/18 05:52:48;;;;;;;3.00;2.43;;;15.90;50.10;;;;;;5116523;28;20965;-84
2021/05/18 05:55:15;;;;;;;3.43;2.40;;;15.20;51.20;;;;;;5122592;28;20467;-84
2021/05/18 05:57:41;;;;;;;3.43;2.20;;;14.80;52.30;;;;;;5119747;28;20466;-84
2021/05/18 06:00:11;;;;;;;2.30;2.10;;;14.70;52.40;;;;;;5117249;28;20485;-83
2021/05/18 06:02:37;;;;;;;3.60;2.37;;;14.70;52.80;;;;;;5116642;28;20445;-84
2021/05/18 06:05:05;;;;;;;4.43;2.30;;;14.50;52.00;;;;;;5116801;28;20471;-84
2021/05/18 06:07:31;;;;;;;4.97;2.93;;;14.70;51.30;;;;;;5118022;28;20473;-84
2021/05/18 06:10:01;;;;;;;7.33;3.23;;;15.00;51.00;;;;;;5133157;28;20528;-84
2021/05/18 06:12:41;;;;;;;2.63;2.37;;;14.70;52.10;;;;;;5126873;28;20512;-84
2021/05/18 06:15:35;;;;;;;3.17;2.30;;;14.80;52.00;;;;;;5117198;28;20484;-84
2021/05/18 06:37:34;;;;;;;5.83;3.50;;;15.50;50.80;;;;;;5115833;28;20403;-84
2021/05/18 06:42:46;;;;;;;4.77;2.40;;;15.80;50.70;;;;;;5115570;28;20429;-84
2021/05/18 06:47:58;;;;;;;2.93;2.20;;;15.10;52.30;;;;;;5115261;28;20412;-84
2021/05/18 06:50:32;;;;;;;6.43;2.33;;;15.10;52.30;;;;;;5129321;28;20524;-84
2021/05/18 06:52:59;;;;;;;2.90;2.20;;;15.30;51.60;;;;;;5134120;28;20466;-83
2021/05/18 06:55:28;;;;;;;2.40;2.20;;;15.50;50.80;;;;;;5132125;28;20505;-84
2021/05/18 06:58:03;;;;;;;2.40;2.20;;;15.50;51.20;;;;;;5131596;28;20444;-84
2021/05/18 07:00:30;;;;;;;3.10;2.17;;;15.70;50.90;;;;;;5131546;28;20426;-84
2021/05/18 07:02:59;;;;;;;3.40;2.30;;;15.90;50.30;;;;;;5131624;28;20540;-83
2021/05/18 07:05:35;;;;;;;5.20;2.00;;;15.40;51.00;;;;;;5131668;28;20512;-83
2021/05/18 07:08:10;;;;;;;3.30;2.30;;;15.20;51.90;;;;;;5116769;28;20526;-83
2021/05/18 07:10:37;;;;;;;2.50;2.00;;;14.90;52.90;;;;;;5116006;28;20426;-82
2021/05/18 07:13:03;;;;;;;5.53;2.07;;;14.70;52.50;;;;;;5115674;28;20502;-83
2021/05/18 07:15:29;;;;;;;3.73;2.30;;;14.80;52.50;;;;;;5116531;28;20835;-83
2021/05/18 07:17:58;;;;;;;2.70;2.17;;;15.30;52.20;;;;;;5115424;28;20482;-83
2021/05/18 07:20:24;;;;;;;2.60;2.10;;;15.30;51.30;;;;;;5115454;28;20446;-83
2021/05/18 07:22:54;;;;;;;2.13;2.00;;;15.70;51.10;;;;;;5114876;28;20792;-83
2021/05/18 07:25:21;;;;;;;2.50;2.30;;;16.10;49.70;;;;;;5114764;28;20973;-84
2021/05/18 07:27:47;;;;;;;2.77;2.30;;;15.70;50.50;;;;;;5115976;28;20555;-83
2021/05/18 07:30:14;;;;;;;2.37;2.13;;;15.80;50.20;;;;;;5115096;28;20537;-83
2021/05/18 07:32:41;;;;;;;6.13;2.40;;;15.50;50.20;;;;;;5115813;28;20511;-83
2021/05/18 07:35:11;;;;;;;2.30;2.03;;;15.60;50.50;;;;;;5115807;28;20481;-83
2021/05/18 07:37:38;;;;;;;5.20;2.40;;;15.30;51.30;;;;;;5119957;28;20448;-83
2021/05/18 07:40:06;;;;;;;2.53;2.10;;;15.00;51.80;;;;;;5115495;28;20540;-83
2021/05/18 07:42:33;;;;;;;2.77;2.27;;;14.90;52.40;;;;;;5115060;28;20463;-83
2021/05/18 07:45:00;;;;;;;2.47;2.33;;;15.10;52.10;;;;;;5114383;28;20995;-83
2021/05/18 07:47:30;;;;;;;2.57;1.93;;;15.20;51.90;;;;;;5114150;28;20937;-84
2021/05/18 07:50:01;;;;;;;4.13;2.03;;;15.00;52.10;;;;;;5114727;28;20480;-83
2021/05/18 08:00:51;;;;;;;2.63;2.03;;;15.00;51.10;;;;;;5129509;28;20404;-83
2021/05/18 08:06:02;;;;;;;4.33;2.23;;;14.40;52.70;;;;;;5128087;28;20447;-83
2021/05/18 08:08:29;;;;;;;6.27;3.33;;;13.90;54.40;;;;;;5128134;28;20438;-83
2021/05/18 08:10:59;;;;;;;2.63;2.13;;;14.20;54.30;;;;;;5119232;28;20437;-83
2021/05/18 08:13:26;;;;;;;2.73;2.00;;;14.50;53.60;;;;;;5118316;28;20467;-83
2021/05/18 08:16:33;;;;;;;4.13;2.00;;;14.60;53.10;;;;;;5123899;28;20472;-84
2021/05/18 08:19:21;;;;;;;4.40;2.30;;;14.70;52.30;;;;;;5122732;28;20471;-84
2021/05/18 10:36:33;;;;;;;7.53;2.77;;;17.90;46.80;;;;;;5115125;28;20510;-86
2021/05/18 10:39:22;;;;;;;2.00;1.90;;;18.30;43.00;;;;;;5116243;28;20188;-86
2021/05/18 10:41:49;;;;;;;3.70;2.10;;;18.30;43.00;;;;;;5113083;28;20540;-86
2021/05/18 10:44:16;;;;;;;9.03;2.10;;;18.60;43.70;;;;;;5117323;28;20461;-87
2021/05/18 10:46:51;;;;;;;2.90;1.90;;;18.60;42.90;;;;;;5116618;28;20430;-87
2021/05/18 10:49:31;;;;;;;4.43;3.13;;;18.60;41.30;;;;;;5117032;28;20601;-86
2021/05/18 10:52:00;;;;;;;9.70;5.67;;;18.60;40.80;;;;;;5119588;28;20457;-86
2021/05/18 10:54:35;;;;;;;2.57;2.07;;;18.20;41.60;;;;;;5120509;28;20500;-86
2021/05/18 10:57:14;;;;;;;3.10;2.20;;;18.70;39.90;;;;;;5117337;28;20425;-86
2021/05/18 10:59:43;;;;;;;2.40;1.90;;;19.30;40.90;;;;;;5117552;28;20485;-86
2021/05/18 11:02:12;;;;;;;2.00;1.70;;;18.70;37.70;;;;;;5118485;28;20518;-86
2021/05/18 11:04:40;;;;;;;5.20;2.10;;;18.70;38.30;;;;;;5117010;28;20458;-86
2021/05/18 11:07:08;;;;;;;7.33;1.87;;;19.10;36.30;;;;;;5115683;28;20470;-86
2021/05/18 11:09:36;;;;;;;2.80;1.60;;;19.30;37.80;;;;;;5115271;28;20578;-86
2021/05/18 11:12:06;;;;;;;2.27;1.70;;;19.30;38.00;;;;;;5115406;28;20496;-86
2021/05/18 11:14:39;;;;;;;2.50;1.73;;;19.00;36.40;;;;;;5115112;27;20485;-86
2021/05/18 11:17:14;;;;;;;4.37;1.60;;;19.00;36.60;;;;;;5115760;28;20449;-86
2021/05/18 11:19:59;;;;;;;1.60;1.50;;;18.80;37.00;;;;;;5115904;28;20897;-86
2021/05/18 11:25:13;;;;;;;3.17;1.60;;;19.10;38.00;;;;;;5119218;28;20447;-86
2021/05/18 11:27:39;;;;;;;4.30;1.80;;;18.80;36.90;;;;;;5114807;28;20437;-86
2021/05/18 11:30:07;;;;;;;2.13;1.60;;;18.70;38.00;;;;;;5115197;28;20505;-86
2021/05/18 11:32:34;;;;;;;4.33;1.97;;;19.10;37.30;;;;;;5115193;28;20434;-86
2021/05/18 11:35:03;;;;;;;13.03;2.50;;;19.10;36.40;;;;;;5115021;28;20507;-86
2021/05/18 11:37:30;;;;;;;1.70;1.60;;;19.40;35.40;;;;;;5114944;28;20922;-86
2021/05/18 11:40:18;;;;;;;2.30;1.60;;;18.90;36.20;;;;;;5115060;28;20476;-86
2021/05/18 11:42:45;;;;;;;4.47;2.33;;;18.80;36.80;;;;;;5115235;28;20898;-86
2021/05/18 11:45:16;;;;;;;9.53;3.63;;;18.80;35.90;;;;;;5115544;28;20520;-87
2021/05/18 11:47:43;;;;;;;1.90;1.70;;;19.00;34.90;;;;;;5116160;28;20465;-86
2021/05/18 11:50:20;;;;;;;4.93;2.40;;;19.00;34.90;;;;;;5114775;28;20495;-87
2021/05/18 11:52:46;;;;;;;3.77;2.10;;;19.10;36.80;;;;;;5115460;28;20477;-87
2021/05/18 11:55:28;;;;;;;4.10;1.73;;;19.60;35.40;;;;;;5115577;28;20462;-87
2021/05/18 11:57:55;;;;;;;3.90;1.77;;;19.00;35.40;;;;;;5114959;28;20490;-86
2021/05/18 12:00:27;;;;;;;3.53;1.60;;;19.10;34.90;;;;;;5114803;28;20518;-86
2021/05/18 12:03:08;;;;;;;1.63;1.53;;;19.40;34.90;;;;;;5116349;28;20441;-86
2021/05/18 12:05:49;;;;;;;2.33;1.50;;;19.70;34.10;;;;;;5116844;28;20967;-87
2021/05/18 12:08:27;;;;;;;3.40;1.70;;;19.70;32.20;;;;;;5115526;28;20501;-86
2021/05/18 12:10:54;;;;;;;2.70;1.83;;;19.60;33.90;;;;;;5122529;28;20429;-86
2021/05/18 12:13:31;;;;;;;1.60;1.50;;;19.30;32.80;;;;;;5134715;28;20473;-86
2021/05/18 12:16:02;;;;;;;1.87;1.77;;;19.40;32.10;;;;;;5127111;28;20457;-86
2021/05/18 12:18:31;;;;;;;2.47;1.60;;;19.40;32.40;;;;;;5116052;28;20484;-86
2021/05/18 12:21:05;;;;;;;3.30;1.60;;;19.60;31.90;;;;;;5115713;28;20474;-86
2021/05/18 12:23:32;;;;;;;4.27;1.70;;;19.80;31.60;;;;;;5119354;28;20437;-87
2021/05/18 12:26:27;;;;;;;1.87;1.60;;;19.90;34.00;;;;;;5116823;28;20462;-87
2021/05/18 12:28:55;;;;;;;2.23;1.70;;;20.10;32.40;;;;;;5102484;28;20481;-87
2021/05/18 12:31:32;;;;;;;4.13;1.70;;;20.10;33.40;;;;;;5114643;28;20469;-87
2021/05/18 12:34:00;;;;;;;4.03;1.80;;;19.70;35.30;;;;;;5114211;28;20473;-87
2021/05/18 12:36:28;;;;;;;5.43;1.90;;;18.80;34.20;;;;;;5115278;28;20480;-86
2021/05/18 12:39:21;;;;;;;3.00;1.77;;;18.70;33.70;;;;;;5120455;28;20467;-87
2021/05/18 12:41:55;;;;;;;5.63;1.80;;;17.80;39.80;;;;;;5091123;28;20449;-88
2021/05/18 12:44:22;;;;;;;3.60;2.53;;;17.20;43.20;;;;;;5115330;28;20519;-87
2021/05/18 12:47:01;;;;;;;2.00;1.60;;;16.80;41.60;;;;;;5114877;28;20484;-88
2021/05/18 12:49:38;;;;;;;1.77;1.70;;;17.00;41.80;;;;;;5123491;27;20523;-87
2021/05/18 12:52:08;;;;;;;1.70;1.60;;;17.50;41.40;;;;;;5114544;28;20449;-88
2021/05/18 12:54:42;;;;;;;1.80;1.70;;;18.20;38.60;;;;;;5114934;28;20575;-88
2021/05/18 12:57:11;;;;;;;2.50;1.70;;;18.50;36.40;;;;;;5114151;28;20475;-88
2021/05/18 13:00:05;;;;;;;2.47;2.00;;;18.80;38.40;;;;;;5116775;28;20467;-88
2021/05/18 13:02:34;;;;;;;3.53;1.73;;;19.40;38.50;;;;;;5118745;28;20433;-88
2021/05/18 13:05:19;;;;;;;2.63;1.73;;;19.60;38.10;;;;;;5117630;28;20503;-88
2021/05/18 13:08:04;;;;;;;1.93;1.47;;;20.00;39.20;;;;;;5118130;28;20429;-88
2021/05/18 13:10:39;;;;;;;4.03;1.60;;;19.20;35.60;;;;;;5118145;28;20520;-88
2021/05/18 13:13:07;;;;;;;1.90;1.80;;;18.80;38.20;;;;;;5118123;28;20552;-88
2021/05/18 13:15:34;;;;;;;3.23;1.70;;;19.40;37.90;;;;;;5118026;28;20538;-87
2021/05/18 13:18:02;;;;;;;2.90;1.50;;;19.20;35.80;;;;;;5117430;28;20957;-88
2021/05/18 13:20:38;;;;;;;1.80;1.43;;;18.80;34.00;;;;;;5117779;28;20479;-88
2021/05/18 13:23:05;;;;;;;1.50;1.40;;;19.20;34.90;;;;;;5117970;28;20512;-88
2021/05/18 13:28:20;;;;;;;3.23;1.60;;;18.90;35.60;;;;;;5117729;28;20444;-88
2021/05/18 13:30:47;;;;;;;2.73;1.63;;;19.00;35.70;;;;;;5121499;28;20412;-88
2021/05/18 13:33:13;;;;;;;1.63;1.60;;;19.30;35.10;;;;;;5138660;27;20477;-88
2021/05/18 13:35:40;;;;;;;1.97;1.70;;;19.40;34.60;;;;;;5117168;28;20998;-88
2021/05/18 13:38:07;;;;;;;2.00;1.80;;;19.80;34.50;;;;;;5117226;28;20446;-89
2021/05/18 13:40:33;;;;;;;1.97;1.70;;;20.10;33.90;;;;;;5117522;28;20444;-88
2021/05/18 13:43:00;;;;;;;1.77;1.47;;;19.70;32.70;;;;;;5117390;28;20449;-88
2021/05/18 13:45:28;;;;;;;1.63;1.60;;;19.50;33.40;;;;;;5118444;28;20489;-85
2021/05/18 13:47:55;;;;;;;1.60;1.50;;;20.00;32.80;;;;;;5117696;28;20450;-85
2021/05/18 13:50:23;;;;;;;1.67;1.60;;;19.90;32.70;;;;;;5118135;28;20434;-85
2021/05/18 13:52:49;;;;;;;3.40;1.70;;;19.60;32.70;;;;;;5116405;28;20946;-85
2021/05/18 13:55:17;;;;;;;2.13;1.60;;;20.00;32.50;;;;;;5116917;28;20540;-85
2021/05/18 13:57:43;;;;;;;5.00;1.90;;;19.90;32.40;;;;;;5116948;28;20934;-85
2021/05/18 14:00:13;;;;;;;2.20;1.60;;;19.90;33.70;;;;;;5116808;28;20985;-85
2021/05/18 14:02:41;;;;;;;11.50;2.30;;;19.70;35.40;;;;;;5116366;28;20477;-85
2021/05/18 14:05:10;;;;;;;7.53;1.80;;;20.00;32.60;;;;;;5117543;28;20460;-85
2021/05/18 14:08:01;;;;;;;1.90;1.80;;;19.90;34.10;;;;;;5117705;28;20444;-85
2021/05/18 14:10:27;;;;;;;2.43;1.70;;;19.60;33.60;;;;;;5117547;28;20953;-84
2021/05/18 14:12:54;;;;;;;1.50;1.50;;;19.00;37.00;;;;;;5116623;28;20484;-84
2021/05/18 14:15:20;;;;;;;3.97;1.70;;;19.00;34.80;;;;;;5131723;27;20470;-85
2021/05/18 14:17:48;;;;;;;1.70;1.60;;;19.30;35.20;;;;;;5132860;28;20445;-85
2021/05/18 14:20:15;;;;;;;1.70;1.50;;;19.60;34.60;;;;;;5121830;28;20532;-84
2021/05/18 14:22:41;;;;;;;2.80;1.50;;;19.40;35.30;;;;;;5118418;28;20513;-84
2021/05/18 14:25:08;;;;;;;2.63;1.60;;;19.40;34.80;;;;;;5118437;28;20485;-84
2021/05/18 14:27:36;;;;;;;1.73;1.60;;;19.40;32.70;;;;;;5117891;28;20485;-84
2021/05/18 14:30:05;;;;;;;1.67;1.50;;;19.70;34.40;;;;;;5116981;28;20528;-84
2021/05/18 14:32:31;;;;;;;1.70;1.60;;;19.80;33.20;;;;;;5116212;28;20498;-84
2021/05/18 14:34:59;;;;;;;1.67;1.60;;;19.50;33.70;;;;;;5116067;28;20523;-84
2021/05/18 14:37:25;;;;;;;1.50;1.50;;;19.20;32.70;;;;;;5115457;28;20529;-84
2021/05/18 14:39:59;;;;;;;1.50;1.47;;;18.90;31.80;;;;;;5116614;28;20453;-85
2021/05/18 14:45:15;;;;;;;1.50;1.50;;;19.10;33.10;;;;;;5115975;28;20441;-84
2021/05/18 14:47:48;;;;;;;1.53;1.50;;;19.40;33.40;;;;;;5117860;28;20472;-85
2021/05/18 14:55:43;;;;;;;1.53;1.53;;;19.30;32.70;;;;;;5116241;28;20942;-85
2021/05/18 14:58:10;;;;;;;3.30;2.00;;;19.30;33.40;;;;;;5124326;27;20441;-86
2021/05/18 15:00:37;;;;;;;2.00;1.50;;;19.30;34.10;;;;;;5139352;27;20452;-84
2021/05/18 15:03:04;;;;;;;1.67;1.50;;;19.20;32.40;;;;;;5119751;28;20815;-84
2021/05/18 15:05:31;;;;;;;2.13;1.60;;;19.20;34.20;;;;;;5118210;28;20469;-84
2021/05/18 15:08:00;;;;;;;3.97;1.57;;;19.50;32.80;;;;;;5117910;28;20476;-84
2021/05/18 15:10:28;;;;;;;1.80;1.70;;;19.70;33.80;;;;;;5118509;28;20524;-84
2021/05/18 15:12:54;;;;;;;2.73;1.70;;;19.70;33.60;;;;;;5118875;28;20540;-84
2021/05/18 15:15:21;;;;;;;1.60;1.50;;;19.30;33.00;;;;;;5118358;28;20454;-84
2021/05/18 15:17:49;;;;;;;2.80;1.70;;;19.40;32.90;;;;;;5115149;28;20449;-84
2021/05/18 15:20:15;;;;;;;4.33;1.60;;;19.50;33.40;;;;;;5114817;28;20922;-84
2021/05/18 15:22:43;;;;;;;1.53;1.50;;;19.70;33.10;;;;;;5114991;28;20442;-84
2021/05/18 15:25:10;;;;;;;1.70;1.60;;;19.80;30.70;;;;;;5117529;28;20899;-84
2021/05/18 15:27:37;;;;;;;1.70;1.60;;;19.90;30.60;;;;;;5116965;28;20495;-85
2021/05/18 15:30:04;;;;;;;2.77;1.63;;;19.90;29.80;;;;;;5116925;28;20429;-84
2021/05/18 15:32:31;;;;;;;2.97;1.53;;;20.10;30.30;;;;;;5118589;28;20841;-84
2021/05/18 15:34:57;;;;;;;3.07;1.60;;;19.70;31.40;;;;;;5116998;28;20526;-84
2021/05/18 15:37:24;;;;;;;1.50;1.50;;;19.40;31.50;;;;;;5117167;28;20476;-84
2021/05/18 15:39:51;;;;;;;2.57;1.70;;;19.40;32.50;;;;;;5118199;28;21015;-84
2021/05/18 15:42:19;;;;;;;2.23;1.50;;;19.40;32.00;;;;;;5129783;27;20430;-85
2021/05/18 15:44:45;;;;;;;1.60;1.53;;;19.20;30.70;;;;;;5134820;27;20457;-84
2021/05/18 15:47:12;;;;;;;1.73;1.60;;;18.80;30.90;;;;;;5116726;28;20485;-84
2021/05/18 15:49:38;;;;;;;2.37;1.90;;;18.60;34.40;;;;;;5117803;28;20450;-84
2021/05/18 15:52:05;;;;;;;2.17;1.70;;;18.50;33.80;;;;;;5119755;28;20498;-84
2021/05/18 15:54:32;;;;;;;8.33;1.60;;;18.70;35.60;;;;;;5126754;28;20489;-84
2021/05/18 15:56:59;;;;;;;4.70;1.70;;;18.50;34.80;;;;;;5134898;27;20450;-84
2021/05/18 15:59:26;;;;;;;4.53;1.50;;;18.60;33.50;;;;;;5137187;28;20487;-85
2021/05/18 16:01:52;;;;;;;2.93;1.80;;;18.80;36.10;;;;;;5136261;27;20438;-85
2021/05/18 16:04:21;;;;;;;2.00;1.90;;;18.70;34.30;;;;;;5137316;27;20453;-85
2021/05/18 16:06:47;;;;;;;2.40;1.60;;;18.20;35.30;;;;;;5137821;27;20460;-85
2021/05/18 16:09:14;;;;;;;7.07;1.83;;;18.20;35.10;;;;;;5127917;27;20441;-85
2021/05/18 16:11:42;;;;;;;2.80;1.80;;;18.20;35.60;;;;;;5118245;28;20495;-85
2021/05/18 16:14:10;;;;;;;6.17;2.00;;;17.80;36.10;;;;;;5119317;28;20564;-85
2021/05/18 16:16:37;;;;;;;1.70;1.60;;;17.70;37.00;;;;;;5118988;28;20494;-86
2021/05/18 16:19:04;;;;;;;5.67;1.90;;;17.80;37.00;;;;;;5115216;28;20548;-85
2021/05/18 16:21:32;;;;;;;1.73;1.40;;;17.70;36.10;;;;;;5115044;28;20480;-85
2021/05/18 16:23:59;;;;;;;1.63;1.60;;;17.80;35.20;;;;;;5115041;28;20441;-86
2021/05/18 16:26:28;;;;;;;2.90;1.60;;;17.90;34.90;;;;;;5131253;28;20480;-86
2021/05/18 16:28:55;;;;;;;3.00;1.80;;;17.90;36.70;;;;;;5125559;28;20469;-85
2021/05/18 16:31:23;;;;;;;2.37;1.73;;;18.00;35.50;;;;;;5113246;28;20450;-85
2021/05/18 16:33:50;;;;;;;2.67;1.73;;;17.60;35.10;;;;;;5116004;28;20508;-85
2021/05/18 16:36:17;;;;;;;2.13;1.50;;;17.20;35.60;;;;;;5118138;28;20489;-86
2021/05/18 16:38:45;;;;;;;2.07;1.50;;;17.40;38.20;;;;;;5118981;28;20452;-86
2021/05/18 16:41:12;;;;;;;2.00;1.90;;;17.60;34.30;;;;;;5118384;28;20755;-86
2021/05/18 16:43:38;;;;;;;1.83;1.73;;;17.20;34.70;;;;;;5129542;28;20442;-85
2021/05/18 16:46:07;;;;;;;2.60;1.90;;;16.80;36.30;;;;;;5125980;28;20476;-85
2021/05/18 16:48:34;;;;;;;4.50;1.83;;;16.80;37.20;;;;;;5119244;28;20441;-86
2021/05/18 16:51:03;;;;;;;9.30;4.37;;;17.00;36.50;;;;;;5123200;28;20441;-86
2021/05/18 16:53:31;;;;;;;3.70;2.40;;;17.50;33.80;;;;;;5126208;28;20468;-86
2021/05/18 16:55:58;;;;;;;3.90;2.80;;;18.10;35.50;;;;;;5128204;28;20472;-86
2021/05/18 16:58:25;;;;;;;3.33;2.00;;;18.40;34.50;;;;;;5110447;28;20819;-85
2021/05/18 17:00:51;;;;;;;1.90;1.80;;;18.20;35.50;;;;;;5129429;27;20464;-85
2021/05/18 17:03:18;;;;;;;3.30;2.00;;;18.30;34.10;;;;;;5140958;27;20480;-86
2021/05/18 17:05:45;;;;;;;1.80;1.70;;;18.40;33.10;;;;;;5141588;27;20453;-85
2021/05/18 17:08:12;;;;;;;5.27;2.00;;;18.50;33.80;;;;;;5138529;28;20484;-85
2021/05/18 17:10:42;;;;;;;5.53;1.90;;;18.40;34.60;;;;;;5141194;27;20442;-85
2021/05/18 17:13:09;;;;;;;2.00;1.90;;;17.60;35.10;;;;;;5126796;27;20440;-85
2021/05/18 17:15:36;;;;;;;2.33;1.90;;;17.40;37.10;;;;;;5120403;28;20473;-86
2021/05/18 17:18:04;;;;;;;2.40;2.00;;;17.40;36.40;;;;;;5119771;28;20528;-85